sensor_id;sensor_type;location;lat;lon;timestamp;P1;durP1;ratioP1;P2;durP2;ratioP2
2488;SDS011;1255;48.716;9.124;2023-03-01T00:00:18;12.40;;;6.70;;
2488;SDS011;1255;48.716;9.124;2023-03-01T00:02:45;12.35;;;7.57;;
2488;SDS011;1255;48.716;9.124;2023-03-01T00:05:11;11.57;;;7.00;;
2488;SDS011;1255;48.716;9.124;2023-03-01T00:07:40;17.52;;;8.75;;
2488;SDS011;1255;48.716;9.124;2023-03-01T00:10:07;18.30;;;8.65;;
2488;SDS011;1255;48.716;9.124;2023-03-01T00:12:35;10.48;;;7.53;;
2488;SDS011;1255;48.716;9.124;2023-03-01T00:15:02;17.23;;;7.07;;
2488;SDS011;1255;48.716;9.124;2023-03-01T00:17:30;11.38;;;7.47;;
2488;SDS011;1255;48.716;9.124;2023-03-01T00:19:56;9.18;;;6.97;;
2488;SDS011;1255;48.716;9.124;2023-03-01T00:22:23;12.07;;;6.85;;
2488;SDS011;1255;48.716;9.124;2023-03-01T00:24:53;11.20;;;7.93;;
2488;SDS011;1255;48.716;9.124;2023-03-01T00:27:20;11.07;;;7.47;;
2488;SDS011;1255;48.716;9.124;2023-03-01T00:29:47;15.10;;;8.20;;
2488;SDS011;1255;48.716;9.124;2023-03-01T00:32:14;11.48;;;7.25;;
2488;SDS011;1255;48.716;9.124;2023-03-01T00:34:41;8.23;;;6.68;;
2488;SDS011;1255;48.716;9.124;2023-03-01T00:37:14;14.25;;;7.13;;
2488;SDS011;1255;48.716;9.124;2023-03-01T00:39:40;14.30;;;7.78;;
2488;SDS011;1255;48.716;9.124;2023-03-01T00:42:09;11.75;;;7.82;;
2488;SDS011;1255;48.716;9.124;2023-03-01T00:44:36;11.10;;;6.18;;
2488;SDS011;1255;48.716;9.124;2023-03-01T00:47:03;9.88;;;6.53;;
2488;SDS011;1255;48.716;9.124;2023-03-01T00:49:30;10.18;;;7.70;;
2488;SDS011;1255;48.716;9.124;2023-03-01T00:51:57;9.63;;;6.53;;
2488;SDS011;1255;48.716;9.124;2023-03-01T00:54:23;14.07;;;6.15;;
2488;SDS011;1255;48.716;9.124;2023-03-01T00:56:50;7.80;;;5.30;;
2488;SDS011;1255;48.716;9.124;2023-03-01T00:59:18;11.20;;;6.43;;
2488;SDS011;1255;48.716;9.124;2023-03-01T01:01:45;11.13;;;7.32;;
2488;SDS011;1255;48.716;9.124;2023-03-01T01:04:12;7.93;;;5.78;;
2488;SDS011;1255;48.716;9.124;2023-03-01T01:06:40;11.25;;;6.53;;
2488;SDS011;1255;48.716;9.124;2023-03-01T01:09:10;9.40;;;5.80;;
2488;SDS011;1255;48.716;9.124;2023-03-01T01:11:42;10.50;;;6.25;;
2488;SDS011;1255;48.716;9.124;2023-03-01T01:14:09;9.32;;;6.28;;
2488;SDS011;1255;48.716;9.124;2023-03-01T01:16:37;7.65;;;6.00;;
2488;SDS011;1255;48.716;9.124;2023-03-01T01:19:04;7.68;;;5.25;;
2488;SDS011;1255;48.716;9.124;2023-03-01T01:21:32;9.07;;;5.63;;
2488;SDS011;1255;48.716;9.124;2023-03-01T01:23:59;9.90;;;5.78;;
2488;SDS011;1255;48.716;9.124;2023-03-01T01:26:27;10.65;;;6.85;;
2488;SDS011;1255;48.716;9.124;2023-03-01T01:28:55;9.70;;;6.05;;
2488;SDS011;1255;48.716;9.124;2023-03-01T01:31:23;6.72;;;5.43;;
2488;SDS011;1255;48.716;9.124;2023-03-01T01:33:52;11.35;;;6.50;;
2488;SDS011;1255;48.716;9.124;2023-03-01T01:36:19;11.32;;;6.38;;
2488;SDS011;1255;48.716;9.124;2023-03-01T01:38:46;11.65;;;6.05;;
2488;SDS011;1255;48.716;9.124;2023-03-01T01:41:14;14.25;;;7.05;;
2488;SDS011;1255;48.716;9.124;2023-03-01T01:43:41;8.52;;;5.47;;
2488;SDS011;1255;48.716;9.124;2023-03-01T01:46:13;8.75;;;5.90;;
2488;SDS011;1255;48.716;9.124;2023-03-01T01:48:53;10.10;;;5.75;;
2488;SDS011;1255;48.716;9.124;2023-03-01T01:51:24;9.73;;;6.00;;
2488;SDS011;1255;48.716;9.124;2023-03-01T01:53:55;10.75;;;6.90;;
2488;SDS011;1255;48.716;9.124;2023-03-01T01:56:25;8.55;;;5.70;;
2488;SDS011;1255;48.716;9.124;2023-03-01T01:58:55;10.05;;;7.13;;
2488;SDS011;1255;48.716;9.124;2023-03-01T02:01:23;9.88;;;6.95;;
2488;SDS011;1255;48.716;9.124;2023-03-01T02:03:50;11.80;;;6.55;;
2488;SDS011;1255;48.716;9.124;2023-03-01T02:06:21;10.73;;;6.55;;
2488;SDS011;1255;48.716;9.124;2023-03-01T02:08:53;10.60;;;6.10;;
2488;SDS011;1255;48.716;9.124;2023-03-01T02:11:23;11.45;;;7.38;;
2488;SDS011;1255;48.716;9.124;2023-03-01T02:13:51;10.05;;;5.90;;
2488;SDS011;1255;48.716;9.124;2023-03-01T02:16:19;8.40;;;6.05;;
2488;SDS011;1255;48.716;9.124;2023-03-01T02:18:47;8.57;;;6.32;;
2488;SDS011;1255;48.716;9.124;2023-03-01T02:21:19;14.68;;;7.15;;
2488;SDS011;1255;48.716;9.124;2023-03-01T02:23:55;15.60;;;7.32;;
2488;SDS011;1255;48.716;9.124;2023-03-01T02:26:27;11.57;;;7.05;;
2488;SDS011;1255;48.716;9.124;2023-03-01T02:29:00;10.63;;;7.13;;
2488;SDS011;1255;48.716;9.124;2023-03-01T02:31:27;10.02;;;7.68;;
2488;SDS011;1255;48.716;9.124;2023-03-01T02:34:09;11.50;;;6.82;;
2488;SDS011;1255;48.716;9.124;2023-03-01T02:36:39;11.02;;;8.00;;
2488;SDS011;1255;48.716;9.124;2023-03-01T02:39:11;8.95;;;6.20;;
2488;SDS011;1255;48.716;9.124;2023-03-01T02:41:43;10.10;;;7.15;;
2488;SDS011;1255;48.716;9.124;2023-03-01T02:44:14;8.13;;;5.97;;
2488;SDS011;1255;48.716;9.124;2023-03-01T02:46:44;11.02;;;7.68;;
2488;SDS011;1255;48.716;9.124;2023-03-01T02:49:21;8.48;;;6.40;;
2488;SDS011;1255;48.716;9.124;2023-03-01T02:51:54;9.40;;;6.95;;
2488;SDS011;1255;48.716;9.124;2023-03-01T02:54:36;11.77;;;7.75;;
2488;SDS011;1255;48.716;9.124;2023-03-01T02:57:07;12.38;;;6.90;;
2488;SDS011;1255;48.716;9.124;2023-03-01T02:59:36;11.05;;;6.78;;
2488;SDS011;1255;48.716;9.124;2023-03-01T03:02:05;11.32;;;7.10;;
2488;SDS011;1255;48.716;9.124;2023-03-01T03:04:32;10.63;;;7.47;;
2488;SDS011;1255;48.716;9.124;2023-03-01T03:06:59;11.85;;;7.88;;
2488;SDS011;1255;48.716;9.124;2023-03-01T03:09:25;10.93;;;7.38;;
2488;SDS011;1255;48.716;9.124;2023-03-01T03:11:53;9.45;;;7.10;;
2488;SDS011;1255;48.716;9.124;2023-03-01T03:14:20;12.93;;;6.40;;
2488;SDS011;1255;48.716;9.124;2023-03-01T03:16:48;8.57;;;6.45;;
2488;SDS011;1255;48.716;9.124;2023-03-01T03:19:16;11.10;;;6.75;;
2488;SDS011;1255;48.716;9.124;2023-03-01T03:21:44;10.82;;;6.72;;
2488;SDS011;1255;48.716;9.124;2023-03-01T03:24:11;8.10;;;7.10;;
2488;SDS011;1255;48.716;9.124;2023-03-01T03:26:38;11.50;;;7.18;;
2488;SDS011;1255;48.716;9.124;2023-03-01T03:29:04;8.25;;;6.35;;
2488;SDS011;1255;48.716;9.124;2023-03-01T03:31:31;7.25;;;5.60;;
2488;SDS011;1255;48.716;9.124;2023-03-01T03:33:59;11.25;;;7.32;;
2488;SDS011;1255;48.716;9.124;2023-03-01T03:36:26;13.80;;;7.18;;
2488;SDS011;1255;48.716;9.124;2023-03-01T03:38:52;12.32;;;8.68;;
2488;SDS011;1255;48.716;9.124;2023-03-01T03:41:19;13.35;;;6.85;;
2488;SDS011;1255;48.716;9.124;2023-03-01T03:43:46;9.13;;;7.00;;
2488;SDS011;1255;48.716;9.124;2023-03-01T03:46:13;19.48;;;8.82;;
2488;SDS011;1255;48.716;9.124;2023-03-01T03:48:42;10.32;;;6.45;;
2488;SDS011;1255;48.716;9.124;2023-03-01T03:51:12;10.95;;;8.23;;
2488;SDS011;1255;48.716;9.124;2023-03-01T03:53:40;13.38;;;6.82;;
2488;SDS011;1255;48.716;9.124;2023-03-01T03:56:07;11.45;;;7.45;;
2488;SDS011;1255;48.716;9.124;2023-03-01T03:58:34;11.50;;;7.22;;
2488;SDS011;1255;48.716;9.124;2023-03-01T04:01:01;11.52;;;7.10;;
2488;SDS011;1255;48.716;9.124;2023-03-01T04:03:29;14.77;;;7.78;;
2488;SDS011;1255;48.716;9.124;2023-03-01T04:05:57;11.63;;;7.78;;
2488;SDS011;1255;48.716;9.124;2023-03-01T04:08:25;13.23;;;7.97;;
2488;SDS011;1255;48.716;9.124;2023-03-01T04:10:56;14.90;;;7.22;;
2488;SDS011;1255;48.716;9.124;2023-03-01T04:13:25;11.77;;;7.47;;
2488;SDS011;1255;48.716;9.124;2023-03-01T04:15:52;10.95;;;7.07;;
2488;SDS011;1255;48.716;9.124;2023-03-01T04:18:20;13.40;;;7.50;;
2488;SDS011;1255;48.716;9.124;2023-03-01T04:20:48;10.25;;;6.30;;
2488;SDS011;1255;48.716;9.124;2023-03-01T04:23:17;11.88;;;6.97;;
2488;SDS011;1255;48.716;9.124;2023-03-01T04:25:47;10.32;;;6.90;;
2488;SDS011;1255;48.716;9.124;2023-03-01T04:28:19;12.20;;;7.40;;
2488;SDS011;1255;48.716;9.124;2023-03-01T04:30:46;15.82;;;8.20;;
2488;SDS011;1255;48.716;9.124;2023-03-01T04:33:13;11.70;;;6.55;;
2488;SDS011;1255;48.716;9.124;2023-03-01T04:35:39;13.43;;;7.93;;
2488;SDS011;1255;48.716;9.124;2023-03-01T04:38:06;10.18;;;8.00;;
2488;SDS011;1255;48.716;9.124;2023-03-01T04:40:33;16.15;;;9.18;;
2488;SDS011;1255;48.716;9.124;2023-03-01T04:43:02;8.82;;;7.25;;
2488;SDS011;1255;48.716;9.124;2023-03-01T04:45:31;11.82;;;7.82;;
2488;SDS011;1255;48.716;9.124;2023-03-01T04:47:59;12.77;;;8.07;;
2488;SDS011;1255;48.716;9.124;2023-03-01T04:50:26;15.32;;;9.00;;
2488;SDS011;1255;48.716;9.124;2023-03-01T04:52:53;11.75;;;6.95;;
2488;SDS011;1255;48.716;9.124;2023-03-01T04:55:23;10.77;;;7.38;;
2488;SDS011;1255;48.716;9.124;2023-03-01T04:57:50;10.77;;;7.70;;
2488;SDS011;1255;48.716;9.124;2023-03-01T05:00:19;9.32;;;7.28;;
2488;SDS011;1255;48.716;9.124;2023-03-01T05:02:47;10.70;;;7.65;;
2488;SDS011;1255;48.716;9.124;2023-03-01T05:05:18;13.85;;;7.97;;
2488;SDS011;1255;48.716;9.124;2023-03-01T05:07:46;10.05;;;7.45;;
2488;SDS011;1255;48.716;9.124;2023-03-01T05:10:13;9.32;;;6.63;;
2488;SDS011;1255;48.716;9.124;2023-03-01T05:12:40;13.63;;;7.13;;
2488;SDS011;1255;48.716;9.124;2023-03-01T05:15:07;11.15;;;7.35;;
2488;SDS011;1255;48.716;9.124;2023-03-01T05:17:35;12.52;;;7.40;;
2488;SDS011;1255;48.716;9.124;2023-03-01T05:20:02;14.25;;;9.25;;
2488;SDS011;1255;48.716;9.124;2023-03-01T05:22:32;12.07;;;7.75;;
2488;SDS011;1255;48.716;9.124;2023-03-01T05:24:59;13.45;;;6.93;;
2488;SDS011;1255;48.716;9.124;2023-03-01T05:27:26;10.93;;;8.07;;
2488;SDS011;1255;48.716;9.124;2023-03-01T05:29:52;12.73;;;8.00;;
2488;SDS011;1255;48.716;9.124;2023-03-01T05:32:19;15.40;;;8.60;;
2488;SDS011;1255;48.716;9.124;2023-03-01T05:34:48;12.02;;;7.75;;
2488;SDS011;1255;48.716;9.124;2023-03-01T05:37:17;15.43;;;8.27;;
2488;SDS011;1255;48.716;9.124;2023-03-01T05:39:44;16.52;;;8.57;;
2488;SDS011;1255;48.716;9.124;2023-03-01T05:42:11;14.10;;;8.10;;
2488;SDS011;1255;48.716;9.124;2023-03-01T05:44:38;11.93;;;7.50;;
2488;SDS011;1255;48.716;9.124;2023-03-01T05:47:05;10.38;;;7.50;;
2488;SDS011;1255;48.716;9.124;2023-03-01T05:49:32;10.38;;;6.93;;
2488;SDS011;1255;48.716;9.124;2023-03-01T05:52:00;11.50;;;7.65;;
2488;SDS011;1255;48.716;9.124;2023-03-01T05:54:27;13.55;;;7.60;;
2488;SDS011;1255;48.716;9.124;2023-03-01T05:56:53;13.38;;;7.93;;
2488;SDS011;1255;48.716;9.124;2023-03-01T05:59:21;11.70;;;7.93;;
2488;SDS011;1255;48.716;9.124;2023-03-01T06:01:48;13.70;;;9.23;;
2488;SDS011;1255;48.716;9.124;2023-03-01T06:04:15;13.45;;;7.97;;
2488;SDS011;1255;48.716;9.124;2023-03-01T06:06:41;15.90;;;9.13;;
2488;SDS011;1255;48.716;9.124;2023-03-01T06:09:09;14.70;;;8.85;;
2488;SDS011;1255;48.716;9.124;2023-03-01T06:11:36;12.65;;;8.63;;
2488;SDS011;1255;48.716;9.124;2023-03-01T06:14:03;13.68;;;8.25;;
2488;SDS011;1255;48.716;9.124;2023-03-01T06:16:31;13.75;;;7.63;;
2488;SDS011;1255;48.716;9.124;2023-03-01T06:18:58;13.10;;;8.82;;
2488;SDS011;1255;48.716;9.124;2023-03-01T06:21:25;10.40;;;8.00;;
2488;SDS011;1255;48.716;9.124;2023-03-01T06:23:51;13.60;;;7.72;;
2488;SDS011;1255;48.716;9.124;2023-03-01T06:26:19;14.40;;;7.70;;
2488;SDS011;1255;48.716;9.124;2023-03-01T06:28:46;13.15;;;7.95;;
2488;SDS011;1255;48.716;9.124;2023-03-01T06:31:13;10.48;;;8.38;;
2488;SDS011;1255;48.716;9.124;2023-03-01T06:33:39;12.68;;;8.23;;
2488;SDS011;1255;48.716;9.124;2023-03-01T06:36:07;14.10;;;8.35;;
2488;SDS011;1255;48.716;9.124;2023-03-01T06:38:35;15.07;;;9.13;;
2488;SDS011;1255;48.716;9.124;2023-03-01T06:41:01;11.50;;;7.72;;
2488;SDS011;1255;48.716;9.124;2023-03-01T06:43:30;11.55;;;7.97;;
2488;SDS011;1255;48.716;9.124;2023-03-01T06:45:56;12.98;;;9.20;;
2488;SDS011;1255;48.716;9.124;2023-03-01T06:48:23;10.07;;;8.18;;
2488;SDS011;1255;48.716;9.124;2023-03-01T06:50:50;15.02;;;8.85;;
2488;SDS011;1255;48.716;9.124;2023-03-01T06:53:16;14.85;;;8.77;;
2488;SDS011;1255;48.716;9.124;2023-03-01T06:55:43;11.70;;;8.20;;
2488;SDS011;1255;48.716;9.124;2023-03-01T06:58:10;11.13;;;8.13;;
2488;SDS011;1255;48.716;9.124;2023-03-01T07:00:38;11.60;;;7.63;;
2488;SDS011;1255;48.716;9.124;2023-03-01T07:03:05;12.65;;;8.07;;
2488;SDS011;1255;48.716;9.124;2023-03-01T07:05:32;15.20;;;9.80;;
2488;SDS011;1255;48.716;9.124;2023-03-01T07:07:59;14.82;;;9.60;;
2488;SDS011;1255;48.716;9.124;2023-03-01T07:10:26;17.92;;;9.00;;
2488;SDS011;1255;48.716;9.124;2023-03-01T07:12:54;11.23;;;7.57;;
2488;SDS011;1255;48.716;9.124;2023-03-01T07:15:21;12.73;;;8.18;;
2488;SDS011;1255;48.716;9.124;2023-03-01T07:17:49;10.45;;;7.05;;
2488;SDS011;1255;48.716;9.124;2023-03-01T07:20:16;15.35;;;8.93;;
2488;SDS011;1255;48.716;9.124;2023-03-01T07:22:43;15.25;;;8.77;;
2488;SDS011;1255;48.716;9.124;2023-03-01T07:25:10;13.05;;;8.43;;
2488;SDS011;1255;48.716;9.124;2023-03-01T07:27:37;10.65;;;8.90;;
2488;SDS011;1255;48.716;9.124;2023-03-01T07:30:04;14.07;;;9.02;;
2488;SDS011;1255;48.716;9.124;2023-03-01T07:32:31;11.70;;;8.88;;
2488;SDS011;1255;48.716;9.124;2023-03-01T07:34:59;10.23;;;8.65;;
2488;SDS011;1255;48.716;9.124;2023-03-01T07:37:26;14.50;;;7.97;;
2488;SDS011;1255;48.716;9.124;2023-03-01T07:39:53;12.55;;;8.48;;
2488;SDS011;1255;48.716;9.124;2023-03-01T07:42:19;11.88;;;7.90;;
2488;SDS011;1255;48.716;9.124;2023-03-01T07:44:46;11.75;;;8.40;;
2488;SDS011;1255;48.716;9.124;2023-03-01T07:47:13;11.70;;;8.40;;
2488;SDS011;1255;48.716;9.124;2023-03-01T07:49:40;11.15;;;7.63;;
2488;SDS011;1255;48.716;9.124;2023-03-01T07:52:10;12.95;;;8.68;;
2488;SDS011;1255;48.716;9.124;2023-03-01T07:54:38;12.27;;;9.18;;
2488;SDS011;1255;48.716;9.124;2023-03-01T07:57:05;10.45;;;7.88;;
2488;SDS011;1255;48.716;9.124;2023-03-01T07:59:32;11.40;;;9.10;;
2488;SDS011;1255;48.716;9.124;2023-03-01T08:01:59;12.02;;;8.68;;
2488;SDS011;1255;48.716;9.124;2023-03-01T08:04:26;13.50;;;9.60;;
2488;SDS011;1255;48.716;9.124;2023-03-01T08:06:54;13.13;;;8.35;;
2488;SDS011;1255;48.716;9.124;2023-03-01T08:09:23;12.00;;;9.35;;
2488;SDS011;1255;48.716;9.124;2023-03-01T08:11:50;15.48;;;9.32;;
2488;SDS011;1255;48.716;9.124;2023-03-01T08:14:16;12.07;;;9.40;;
2488;SDS011;1255;48.716;9.124;2023-03-01T08:16:43;13.88;;;9.80;;
2488;SDS011;1255;48.716;9.124;2023-03-01T08:19:11;17.33;;;9.20;;
2488;SDS011;1255;48.716;9.124;2023-03-01T08:21:38;11.65;;;9.13;;
2488;SDS011;1255;48.716;9.124;2023-03-01T08:24:05;11.82;;;9.48;;
2488;SDS011;1255;48.716;9.124;2023-03-01T08:26:34;13.20;;;9.70;;
2488;SDS011;1255;48.716;9.124;2023-03-01T08:29:00;12.30;;;9.65;;
2488;SDS011;1255;48.716;9.124;2023-03-01T08:31:29;10.98;;;8.63;;
2488;SDS011;1255;48.716;9.124;2023-03-01T08:33:57;13.05;;;10.02;;
2488;SDS011;1255;48.716;9.124;2023-03-01T08:36:26;13.57;;;9.57;;
2488;SDS011;1255;48.716;9.124;2023-03-01T08:38:54;12.00;;;9.20;;
2488;SDS011;1255;48.716;9.124;2023-03-01T08:41:21;12.30;;;9.80;;
2488;SDS011;1255;48.716;9.124;2023-03-01T08:43:49;12.38;;;9.70;;
2488;SDS011;1255;48.716;9.124;2023-03-01T08:46:17;12.52;;;9.68;;
2488;SDS011;1255;48.716;9.124;2023-03-01T08:48:44;12.55;;;8.70;;
2488;SDS011;1255;48.716;9.124;2023-03-01T08:51:13;15.40;;;8.80;;
2488;SDS011;1255;48.716;9.124;2023-03-01T08:53:41;15.03;;;10.40;;
2488;SDS011;1255;48.716;9.124;2023-03-01T08:56:09;13.17;;;11.73;;
2488;SDS011;1255;48.716;9.124;2023-03-01T08:58:36;14.38;;;9.40;;
2488;SDS011;1255;48.716;9.124;2023-03-01T09:01:08;13.13;;;10.20;;
2488;SDS011;1255;48.716;9.124;2023-03-01T09:03:35;13.30;;;11.00;;
2488;SDS011;1255;48.716;9.124;2023-03-01T09:06:03;10.63;;;8.77;;
2488;SDS011;1255;48.716;9.124;2023-03-01T09:08:33;14.17;;;11.00;;
2488;SDS011;1255;48.716;9.124;2023-03-01T09:11:01;14.10;;;10.40;;
2488;SDS011;1255;48.716;9.124;2023-03-01T09:13:29;12.40;;;9.87;;
2488;SDS011;1255;48.716;9.124;2023-03-01T09:15:57;12.57;;;10.43;;
2488;SDS011;1255;48.716;9.124;2023-03-01T09:18:25;12.20;;;9.27;;
2488;SDS011;1255;48.716;9.124;2023-03-01T09:20:52;15.30;;;10.70;;
2488;SDS011;1255;48.716;9.124;2023-03-01T09:23:21;15.80;;;11.47;;
2488;SDS011;1255;48.716;9.124;2023-03-01T09:25:47;11.90;;;10.00;;
2488;SDS011;1255;48.716;9.124;2023-03-01T09:28:14;10.07;;;8.40;;
2488;SDS011;1255;48.716;9.124;2023-03-01T09:30:41;13.63;;;9.37;;
2488;SDS011;1255;48.716;9.124;2023-03-01T09:33:08;13.60;;;9.10;;
2488;SDS011;1255;48.716;9.124;2023-03-01T09:35:40;11.13;;;8.77;;
2488;SDS011;1255;48.716;9.124;2023-03-01T09:38:11;13.33;;;9.67;;
2488;SDS011;1255;48.716;9.124;2023-03-01T09:40:41;11.70;;;10.00;;
2488;SDS011;1255;48.716;9.124;2023-03-01T09:43:13;12.57;;;9.80;;
2488;SDS011;1255;48.716;9.124;2023-03-01T09:45:46;12.57;;;9.13;;
2488;SDS011;1255;48.716;9.124;2023-03-01T09:48:16;9.90;;;8.90;;
2488;SDS011;1255;48.716;9.124;2023-03-01T09:50:51;10.93;;;8.70;;
2488;SDS011;1255;48.716;9.124;2023-03-01T09:53:53;13.80;;;10.70;;
2488;SDS011;1255;48.716;9.124;2023-03-01T09:56:34;12.13;;;10.20;;
2488;SDS011;1255;48.716;9.124;2023-03-01T09:59:08;11.67;;;8.83;;
2488;SDS011;1255;48.716;9.124;2023-03-01T10:01:46;13.40;;;9.10;;
2488;SDS011;1255;48.716;9.124;2023-03-01T10:04:25;11.30;;;9.10;;
2488;SDS011;1255;48.716;9.124;2023-03-01T10:07:01;9.83;;;8.83;;
2488;SDS011;1255;48.716;9.124;2023-03-01T10:09:47;11.67;;;9.30;;
2488;SDS011;1255;48.716;9.124;2023-03-01T10:12:15;10.77;;;9.47;;
2488;SDS011;1255;48.716;9.124;2023-03-01T10:14:47;12.20;;;9.50;;
2488;SDS011;1255;48.716;9.124;2023-03-01T10:17:23;10.17;;;8.53;;
2488;SDS011;1255;48.716;9.124;2023-03-01T10:19:53;11.60;;;9.27;;
2488;SDS011;1255;48.716;9.124;2023-03-01T10:22:27;11.57;;;9.33;;
2488;SDS011;1255;48.716;9.124;2023-03-01T10:24:57;10.27;;;9.17;;
2488;SDS011;1255;48.716;9.124;2023-03-01T10:27:26;11.17;;;10.00;;
2488;SDS011;1255;48.716;9.124;2023-03-01T10:30:05;12.87;;;9.93;;
2488;SDS011;1255;48.716;9.124;2023-03-01T10:32:41;11.50;;;9.60;;
2488;SDS011;1255;48.716;9.124;2023-03-01T10:35:15;17.53;;;10.03;;
2488;SDS011;1255;48.716;9.124;2023-03-01T10:37:57;10.83;;;8.90;;
2488;SDS011;1255;48.716;9.124;2023-03-01T10:40:28;10.73;;;9.03;;
2488;SDS011;1255;48.716;9.124;2023-03-01T10:42:57;12.80;;;10.37;;
2488;SDS011;1255;48.716;9.124;2023-03-01T10:45:34;12.10;;;9.37;;
2488;SDS011;1255;48.716;9.124;2023-03-01T10:48:08;10.67;;;9.23;;
2488;SDS011;1255;48.716;9.124;2023-03-01T10:50:39;12.40;;;9.63;;
2488;SDS011;1255;48.716;9.124;2023-03-01T10:53:18;11.17;;;9.77;;
2488;SDS011;1255;48.716;9.124;2023-03-01T10:55:59;11.13;;;10.00;;
2488;SDS011;1255;48.716;9.124;2023-03-01T10:58:29;10.60;;;9.40;;
2488;SDS011;1255;48.716;9.124;2023-03-01T11:00:58;12.60;;;10.47;;
2488;SDS011;1255;48.716;9.124;2023-03-01T11:03:27;11.70;;;9.47;;
2488;SDS011;1255;48.716;9.124;2023-03-01T11:06:19;10.40;;;8.77;;
2488;SDS011;1255;48.716;9.124;2023-03-01T11:08:49;11.20;;;9.17;;
2488;SDS011;1255;48.716;9.124;2023-03-01T11:11:21;12.10;;;9.93;;
2488;SDS011;1255;48.716;9.124;2023-03-01T11:13:59;11.90;;;9.70;;
2488;SDS011;1255;48.716;9.124;2023-03-01T11:16:29;10.97;;;9.53;;
2488;SDS011;1255;48.716;9.124;2023-03-01T11:18:59;11.43;;;9.60;;
2488;SDS011;1255;48.716;9.124;2023-03-01T11:21:30;12.33;;;9.43;;
2488;SDS011;1255;48.716;9.124;2023-03-01T11:24:01;14.73;;;10.30;;
2488;SDS011;1255;48.716;9.124;2023-03-01T11:26:30;11.30;;;10.03;;
2488;SDS011;1255;48.716;9.124;2023-03-01T11:29:01;15.30;;;10.33;;
2488;SDS011;1255;48.716;9.124;2023-03-01T11:31:32;12.40;;;10.40;;
2488;SDS011;1255;48.716;9.124;2023-03-01T11:34:02;13.60;;;9.83;;
2488;SDS011;1255;48.716;9.124;2023-03-01T11:36:35;12.63;;;10.23;;
2488;SDS011;1255;48.716;9.124;2023-03-01T11:39:15;11.57;;;9.83;;
2488;SDS011;1255;48.716;9.124;2023-03-01T11:41:52;11.13;;;9.03;;
2488;SDS011;1255;48.716;9.124;2023-03-01T11:44:28;11.10;;;10.00;;
2488;SDS011;1255;48.716;9.124;2023-03-01T11:47:09;12.33;;;9.50;;
2488;SDS011;1255;48.716;9.124;2023-03-01T11:49:49;13.13;;;10.03;;
2488;SDS011;1255;48.716;9.124;2023-03-01T11:52:31;13.40;;;10.07;;
2488;SDS011;1255;48.716;9.124;2023-03-01T11:55:19;11.03;;;9.87;;
2488;SDS011;1255;48.716;9.124;2023-03-01T11:58:17;11.13;;;9.00;;
2488;SDS011;1255;48.716;9.124;2023-03-01T12:00:57;10.70;;;9.20;;
2488;SDS011;1255;48.716;9.124;2023-03-01T12:03:54;11.60;;;9.30;;
2488;SDS011;1255;48.716;9.124;2023-03-01T12:06:38;12.80;;;9.90;;
2488;SDS011;1255;48.716;9.124;2023-03-01T12:09:16;9.47;;;7.93;;
2488;SDS011;1255;48.716;9.124;2023-03-01T12:12:11;11.90;;;8.80;;
2488;SDS011;1255;48.716;9.124;2023-03-01T12:15:09;12.70;;;9.90;;
2488;SDS011;1255;48.716;9.124;2023-03-01T12:20:51;10.63;;;9.47;;
2488;SDS011;1255;48.716;9.124;2023-03-01T12:23:31;9.80;;;8.80;;
2488;SDS011;1255;48.716;9.124;2023-03-01T12:26:25;11.30;;;9.60;;
2488;SDS011;1255;48.716;9.124;2023-03-01T12:28:59;10.40;;;9.17;;
2488;SDS011;1255;48.716;9.124;2023-03-01T12:34:50;10.27;;;8.87;;
2488;SDS011;1255;48.716;9.124;2023-03-01T12:37:29;10.83;;;9.13;;
2488;SDS011;1255;48.716;9.124;2023-03-01T12:40:24;12.10;;;8.47;;
2488;SDS011;1255;48.716;9.124;2023-03-01T12:43:03;11.23;;;9.10;;
2488;SDS011;1255;48.716;9.124;2023-03-01T12:45:43;11.90;;;9.00;;
2488;SDS011;1255;48.716;9.124;2023-03-01T12:48:22;9.47;;;8.43;;
2488;SDS011;1255;48.716;9.124;2023-03-01T12:50:57;11.70;;;9.30;;
2488;SDS011;1255;48.716;9.124;2023-03-01T12:53:30;12.53;;;9.17;;
2488;SDS011;1255;48.716;9.124;2023-03-01T12:56:01;9.17;;;8.17;;
2488;SDS011;1255;48.716;9.124;2023-03-01T12:58:32;11.23;;;9.37;;
2488;SDS011;1255;48.716;9.124;2023-03-01T13:01:05;10.20;;;9.10;;
2488;SDS011;1255;48.716;9.124;2023-03-01T13:06:40;11.57;;;8.47;;
2488;SDS011;1255;48.716;9.124;2023-03-01T13:09:15;10.33;;;8.33;;
2488;SDS011;1255;48.716;9.124;2023-03-01T13:11:49;9.20;;;7.50;;
2488;SDS011;1255;48.716;9.124;2023-03-01T13:14:43;9.47;;;8.47;;
2488;SDS011;1255;48.716;9.124;2023-03-01T13:17:30;9.87;;;7.93;;
2488;SDS011;1255;48.716;9.124;2023-03-01T13:19:59;11.10;;;8.47;;
2488;SDS011;1255;48.716;9.124;2023-03-01T13:22:27;12.03;;;9.17;;
2488;SDS011;1255;48.716;9.124;2023-03-01T13:25:10;10.87;;;8.10;;
2488;SDS011;1255;48.716;9.124;2023-03-01T13:27:39;12.60;;;8.87;;
2488;SDS011;1255;48.716;9.124;2023-03-01T13:30:37;13.90;;;7.83;;
2488;SDS011;1255;48.716;9.124;2023-03-01T13:36:01;10.30;;;8.20;;
2488;SDS011;1255;48.716;9.124;2023-03-01T13:38:38;10.50;;;8.37;;
2488;SDS011;1255;48.716;9.124;2023-03-01T13:41:11;8.70;;;7.63;;
2488;SDS011;1255;48.716;9.124;2023-03-01T13:43:40;12.43;;;9.53;;
2488;SDS011;1255;48.716;9.124;2023-03-01T13:48:39;10.67;;;7.83;;
2488;SDS011;1255;48.716;9.124;2023-03-01T13:51:08;8.13;;;7.33;;
2488;SDS011;1255;48.716;9.124;2023-03-01T13:53:38;8.67;;;7.30;;
2488;SDS011;1255;48.716;9.124;2023-03-01T13:56:09;9.27;;;7.20;;
2488;SDS011;1255;48.716;9.124;2023-03-01T13:58:47;8.97;;;7.73;;
2488;SDS011;1255;48.716;9.124;2023-03-01T14:01:27;9.10;;;7.97;;
2488;SDS011;1255;48.716;9.124;2023-03-01T14:03:55;8.83;;;7.63;;
2488;SDS011;1255;48.716;9.124;2023-03-01T14:06:25;10.57;;;7.80;;
2488;SDS011;1255;48.716;9.124;2023-03-01T14:09:00;13.57;;;9.67;;
2488;SDS011;1255;48.716;9.124;2023-03-01T14:11:33;10.43;;;9.03;;
2488;SDS011;1255;48.716;9.124;2023-03-01T14:14:25;12.90;;;8.37;;
2488;SDS011;1255;48.716;9.124;2023-03-01T14:17:09;10.60;;;9.07;;
2488;SDS011;1255;48.716;9.124;2023-03-01T14:19:56;9.93;;;8.27;;
2488;SDS011;1255;48.716;9.124;2023-03-01T14:22:26;13.13;;;8.90;;
2488;SDS011;1255;48.716;9.124;2023-03-01T14:24:56;11.43;;;9.30;;
2488;SDS011;1255;48.716;9.124;2023-03-01T14:27:26;13.53;;;10.50;;
2488;SDS011;1255;48.716;9.124;2023-03-01T14:29:56;13.13;;;9.40;;
2488;SDS011;1255;48.716;9.124;2023-03-01T14:32:25;12.20;;;9.90;;
2488;SDS011;1255;48.716;9.124;2023-03-01T14:34:52;13.30;;;9.30;;
2488;SDS011;1255;48.716;9.124;2023-03-01T14:37:21;10.50;;;8.80;;
2488;SDS011;1255;48.716;9.124;2023-03-01T14:39:51;12.07;;;9.53;;
2488;SDS011;1255;48.716;9.124;2023-03-01T14:42:19;11.80;;;8.73;;
2488;SDS011;1255;48.716;9.124;2023-03-01T14:47:17;11.73;;;9.53;;
2488;SDS011;1255;48.716;9.124;2023-03-01T14:49:52;12.83;;;9.33;;
2488;SDS011;1255;48.716;9.124;2023-03-01T14:52:25;14.27;;;9.30;;
2488;SDS011;1255;48.716;9.124;2023-03-01T14:55:00;13.90;;;9.57;;
2488;SDS011;1255;48.716;9.124;2023-03-01T14:57:29;11.73;;;9.67;;
2488;SDS011;1255;48.716;9.124;2023-03-01T14:59:57;11.40;;;8.40;;
2488;SDS011;1255;48.716;9.124;2023-03-01T15:02:30;11.10;;;9.43;;
2488;SDS011;1255;48.716;9.124;2023-03-01T15:04:59;12.40;;;9.60;;
2488;SDS011;1255;48.716;9.124;2023-03-01T15:07:31;11.30;;;9.13;;
2488;SDS011;1255;48.716;9.124;2023-03-01T15:10:03;11.40;;;9.27;;
2488;SDS011;1255;48.716;9.124;2023-03-01T15:12:34;13.73;;;9.33;;
2488;SDS011;1255;48.716;9.124;2023-03-01T15:18:03;15.23;;;10.90;;
2488;SDS011;1255;48.716;9.124;2023-03-01T15:20:38;13.40;;;10.57;;
2488;SDS011;1255;48.716;9.124;2023-03-01T15:23:05;14.27;;;9.27;;
2488;SDS011;1255;48.716;9.124;2023-03-01T15:25:43;11.88;;;9.80;;
2488;SDS011;1255;48.716;9.124;2023-03-01T15:28:15;14.05;;;10.00;;
2488;SDS011;1255;48.716;9.124;2023-03-01T15:30:45;13.00;;;10.10;;
2488;SDS011;1255;48.716;9.124;2023-03-01T15:33:20;12.07;;;9.45;;
2488;SDS011;1255;48.716;9.124;2023-03-01T15:35:58;13.10;;;9.50;;
2488;SDS011;1255;48.716;9.124;2023-03-01T15:38:26;13.30;;;9.05;;
2488;SDS011;1255;48.716;9.124;2023-03-01T15:40:56;12.50;;;10.05;;
2488;SDS011;1255;48.716;9.124;2023-03-01T15:43:37;14.20;;;9.38;;